sensor_id;sensor_type;location;lat;lon;timestamp;pressure;altitude;pressure_sealevel;temperature;humidity
26489;BME280;14169;43.684;10.484;2022-09-12T00:01:17;101474.19;;;21.06;100.00
26489;BME280;14169;43.684;10.484;2022-09-12T00:03:43;101474.28;;;21.04;100.00
26489;BME280;14169;43.684;10.484;2022-09-12T00:06:16;101478.06;;;21.00;100.00
26489;BME280;14169;43.684;10.484;2022-09-12T00:08:42;101487.47;;;21.06;100.00
26489;BME280;14169;43.684;10.484;2022-09-12T00:11:08;101478.94;;;21.00;100.00
26489;BME280;14169;43.684;10.484;2022-09-12T00:13:34;101484.44;;;20.97;100.00
26489;BME280;14169;43.684;10.484;2022-09-12T00:15:59;101479.22;;;20.96;100.00
26489;BME280;14169;43.684;10.484;2022-09-12T00:18:25;101482.63;;;20.98;100.00
26489;BME280;14169;43.684;10.484;2022-09-12T00:20:50;101477.03;;;21.02;100.00
26489;BME280;14169;43.684;10.484;2022-09-12T00:23:16;101492.00;;;21.03;100.00
26489;BME280;14169;43.684;10.484;2022-09-12T00:25:45;101484.59;;;21.09;100.00
26489;BME280;14169;43.684;10.484;2022-09-12T00:28:11;101483.56;;;21.11;100.00
26489;BME280;14169;43.684;10.484;2022-09-12T00:30:41;101481.84;;;21.10;100.00
26489;BME280;14169;43.684;10.484;2022-09-12T00:33:06;101488.97;;;21.10;100.00
26489;BME280;14169;43.684;10.484;2022-09-12T00:35:32;101480.34;;;21.06;100.00
26489;BME280;14169;43.684;10.484;2022-09-12T00:37:57;101484.69;;;21.07;100.00
26489;BME280;14169;43.684;10.484;2022-09-12T00:40:22;101482.06;;;21.07;100.00
26489;BME280;14169;43.684;10.484;2022-09-12T00:42:48;101490.09;;;21.06;100.00
26489;BME280;14169;43.684;10.484;2022-09-12T00:45:22;101479.56;;;21.04;100.00
26489;BME280;14169;43.684;10.484;2022-09-12T00:47:47;101481.28;;;21.05;100.00
26489;BME280;14169;43.684;10.484;2022-09-12T00:50:13;101474.38;;;21.02;100.00
26489;BME280;14169;43.684;10.484;2022-09-12T00:52:44;101472.78;;;21.00;100.00
26489;BME280;14169;43.684;10.484;2022-09-12T00:55:19;101471.09;;;20.99;100.00
26489;BME280;14169;43.684;10.484;2022-09-12T00:57:49;101469.28;;;20.99;100.00
26489;BME280;14169;43.684;10.484;2022-09-12T01:00:18;101466.94;;;20.95;100.00
26489;BME280;14169;43.684;10.484;2022-09-12T01:02:45;101463.06;;;20.86;100.00
26489;BME280;14169;43.684;10.484;2022-09-12T01:05:13;101453.31;;;20.87;100.00
26489;BME280;14169;43.684;10.484;2022-09-12T01:07:38;101451.69;;;20.84;100.00
26489;BME280;14169;43.684;10.484;2022-09-12T01:10:05;101457.09;;;20.83;100.00
26489;BME280;14169;43.684;10.484;2022-09-12T01:12:31;101444.50;;;20.86;100.00
26489;BME280;14169;43.684;10.484;2022-09-12T01:14:57;101446.13;;;20.89;100.00
26489;BME280;14169;43.684;10.484;2022-09-12T01:17:23;101451.22;;;20.92;100.00
26489;BME280;14169;43.684;10.484;2022-09-12T01:30:24;101439.09;;;20.88;100.00
26489;BME280;14169;43.684;10.484;2022-09-12T01:38:24;101450.28;;;20.65;100.00
26489;BME280;14169;43.684;10.484;2022-09-12T01:43:41;101443.00;;;20.40;100.00
26489;BME280;14169;43.684;10.484;2022-09-12T01:48:39;101443.06;;;20.25;100.00
26489;BME280;14169;43.684;10.484;2022-09-12T01:51:20;101436.47;;;20.17;100.00
26489;BME280;14169;43.684;10.484;2022-09-12T01:53:48;101433.34;;;20.11;100.00
26489;BME280;14169;43.684;10.484;2022-09-12T01:56:19;101422.25;;;20.04;100.00
26489;BME280;14169;43.684;10.484;2022-09-12T01:58:49;101425.00;;;20.03;100.00
26489;BME280;14169;43.684;10.484;2022-09-12T02:01:31;101423.38;;;20.00;100.00
26489;BME280;14169;43.684;10.484;2022-09-12T02:09:08;101418.66;;;19.91;100.00
26489;BME280;14169;43.684;10.484;2022-09-12T02:11:36;101427.59;;;19.89;100.00
26489;BME280;14169;43.684;10.484;2022-09-12T02:14:08;101429.84;;;19.81;100.00
26489;BME280;14169;43.684;10.484;2022-09-12T02:16:38;101426.84;;;19.87;100.00
26489;BME280;14169;43.684;10.484;2022-09-12T02:19:07;101422.94;;;19.94;100.00
26489;BME280;14169;43.684;10.484;2022-09-12T02:21:33;101415.28;;;20.03;100.00
26489;BME280;14169;43.684;10.484;2022-09-12T02:24:01;101403.75;;;20.04;100.00
26489;BME280;14169;43.684;10.484;2022-09-12T02:26:33;101419.06;;;19.99;100.00
26489;BME280;14169;43.684;10.484;2022-09-12T02:28:59;101418.19;;;19.99;100.00
26489;BME280;14169;43.684;10.484;2022-09-12T02:31:44;101418.97;;;20.01;100.00
26489;BME280;14169;43.684;10.484;2022-09-12T02:36:45;101411.50;;;19.93;100.00
26489;BME280;14169;43.684;10.484;2022-09-12T02:39:14;101411.06;;;19.85;100.00
26489;BME280;14169;43.684;10.484;2022-09-12T02:41:44;101409.16;;;19.73;100.00
26489;BME280;14169;43.684;10.484;2022-09-12T02:44:09;101416.56;;;19.67;100.00
26489;BME280;14169;43.684;10.484;2022-09-12T02:46:36;101404.56;;;19.61;100.00
26489;BME280;14169;43.684;10.484;2022-09-12T02:49:03;101412.59;;;19.60;100.00
26489;BME280;14169;43.684;10.484;2022-09-12T02:51:28;101412.66;;;19.58;100.00
26489;BME280;14169;43.684;10.484;2022-09-12T02:53:54;101406.47;;;19.59;100.00
26489;BME280;14169;43.684;10.484;2022-09-12T02:56:25;101409.25;;;19.56;100.00
26489;BME280;14169;43.684;10.484;2022-09-12T02:58:51;101406.06;;;19.51;100.00
26489;BME280;14169;43.684;10.484;2022-09-12T03:01:21;101414.34;;;19.45;100.00
26489;BME280;14169;43.684;10.484;2022-09-12T03:09:14;101415.13;;;19.31;100.00
26489;BME280;14169;43.684;10.484;2022-09-12T03:22:23;101417.34;;;19.08;100.00
26489;BME280;14169;43.684;10.484;2022-09-12T03:27:18;101418.63;;;19.01;100.00
26489;BME280;14169;43.684;10.484;2022-09-12T03:29:46;101418.81;;;18.98;100.00
26489;BME280;14169;43.684;10.484;2022-09-12T03:32:12;101416.31;;;18.95;100.00
26489;BME280;14169;43.684;10.484;2022-09-12T03:34:37;101413.94;;;18.90;100.00
26489;BME280;14169;43.684;10.484;2022-09-12T03:37:03;101407.88;;;18.88;100.00
26489;BME280;14169;43.684;10.484;2022-09-12T03:39:28;101412.47;;;18.85;100.00
26489;BME280;14169;43.684;10.484;2022-09-12T03:41:54;101411.81;;;18.81;100.00
26489;BME280;14169;43.684;10.484;2022-09-12T03:44:19;101403.03;;;18.81;100.00
26489;BME280;14169;43.684;10.484;2022-09-12T03:46:45;101411.03;;;18.79;100.00
26489;BME280;14169;43.684;10.484;2022-09-12T03:49:10;101409.41;;;18.77;100.00
26489;BME280;14169;43.684;10.484;2022-09-12T03:51:36;101402.59;;;18.73;100.00
26489;BME280;14169;43.684;10.484;2022-09-12T03:54:01;101398.38;;;18.70;100.00
26489;BME280;14169;43.684;10.484;2022-09-12T03:56:27;101409.06;;;18.67;100.00
26489;BME280;14169;43.684;10.484;2022-09-12T03:58:53;101403.88;;;18.66;100.00
26489;BME280;14169;43.684;10.484;2022-09-12T04:01:18;101396.06;;;18.64;100.00
26489;BME280;14169;43.684;10.484;2022-09-12T04:03:45;101398.59;;;18.66;100.00
26489;BME280;14169;43.684;10.484;2022-09-12T04:06:11;101402.25;;;18.63;100.00
26489;BME280;14169;43.684;10.484;2022-09-12T04:08:38;101400.47;;;18.64;100.00
26489;BME280;14169;43.684;10.484;2022-09-12T04:11:04;101398.75;;;18.63;100.00
26489;BME280;14169;43.684;10.484;2022-09-12T04:13:29;101405.75;;;18.64;100.00
26489;BME280;14169;43.684;10.484;2022-09-12T04:15:58;101410.19;;;18.63;100.00
26489;BME280;14169;43.684;10.484;2022-09-12T04:18:23;101402.25;;;18.63;100.00
26489;BME280;14169;43.684;10.484;2022-09-12T04:20:49;101398.69;;;18.64;100.00
26489;BME280;14169;43.684;10.484;2022-09-12T04:23:14;101401.41;;;18.63;100.00
26489;BME280;14169;43.684;10.484;2022-09-12T04:25:39;101402.34;;;18.62;100.00
26489;BME280;14169;43.684;10.484;2022-09-12T04:28:04;101390.84;;;18.63;100.00
26489;BME280;14169;43.684;10.484;2022-09-12T04:30:30;101403.22;;;18.62;100.00
26489;BME280;14169;43.684;10.484;2022-09-12T04:32:55;101397.94;;;18.62;100.00
26489;BME280;14169;43.684;10.484;2022-09-12T04:35:20;101404.22;;;18.60;100.00
26489;BME280;14169;43.684;10.484;2022-09-12T04:37:46;101411.38;;;18.58;100.00
26489;BME280;14169;43.684;10.484;2022-09-12T04:40:11;101407.28;;;18.52;100.00
26489;BME280;14169;43.684;10.484;2022-09-12T04:42:36;101413.47;;;18.51;100.00
26489;BME280;14169;43.684;10.484;2022-09-12T04:45:02;101411.78;;;18.50;100.00
26489;BME280;14169;43.684;10.484;2022-09-12T04:47:27;101416.13;;;18.51;100.00
26489;BME280;14169;43.684;10.484;2022-09-12T04:49:53;101410.84;;;18.51;100.00
26489;BME280;14169;43.684;10.484;2022-09-12T04:52:18;101418.84;;;18.49;100.00
26489;BME280;14169;43.684;10.484;2022-09-12T04:54:43;101422.41;;;18.48;100.00
26489;BME280;14169;43.684;10.484;2022-09-12T04:57:08;101421.63;;;18.46;100.00
26489;BME280;14169;43.684;10.484;2022-09-12T04:59:34;101422.50;;;18.47;100.00
26489;BME280;14169;43.684;10.484;2022-09-12T05:01:59;101425.75;;;18.52;100.00
26489;BME280;14169;43.684;10.484;2022-09-12T05:04:25;101426.25;;;18.59;100.00
26489;BME280;14169;43.684;10.484;2022-09-12T05:06:50;101427.88;;;18.61;100.00
26489;BME280;14169;43.684;10.484;2022-09-12T05:09:15;101437.34;;;18.65;100.00
26489;BME280;14169;43.684;10.484;2022-09-12T05:11:41;101435.47;;;18.67;100.00
26489;BME280;14169;43.684;10.484;2022-09-12T05:14:07;101433.44;;;18.72;100.00
26489;BME280;14169;43.684;10.484;2022-09-12T05:16:33;101432.41;;;18.75;100.00
26489;BME280;14169;43.684;10.484;2022-09-12T05:18:58;101430.81;;;18.72;100.00
26489;BME280;14169;43.684;10.484;2022-09-12T05:21:24;101437.53;;;18.78;100.00
26489;BME280;14169;43.684;10.484;2022-09-12T05:23:50;101441.63;;;18.83;100.00
26489;BME280;14169;43.684;10.484;2022-09-12T05:26:16;101450.13;;;18.88;100.00
26489;BME280;14169;43.684;10.484;2022-09-12T05:28:41;101454.06;;;18.97;100.00
26489;BME280;14169;43.684;10.484;2022-09-12T05:33:36;101460.28;;;18.96;100.00
26489;BME280;14169;43.684;10.484;2022-09-12T05:36:02;101467.88;;;19.02;100.00
26489;BME280;14169;43.684;10.484;2022-09-12T05:38:28;101471.00;;;19.08;100.00
26489;BME280;14169;43.684;10.484;2022-09-12T05:41:01;101470.69;;;19.14;100.00
26489;BME280;14169;43.684;10.484;2022-09-12T05:43:27;101476.06;;;19.28;100.00
26489;BME280;14169;43.684;10.484;2022-09-12T05:45:56;101481.00;;;19.34;100.00
26489;BME280;14169;43.684;10.484;2022-09-12T05:48:23;101476.25;;;19.41;100.00
26489;BME280;14169;43.684;10.484;2022-09-12T05:50:49;101484.16;;;19.41;100.00
26489;BME280;14169;43.684;10.484;2022-09-12T05:53:14;101484.69;;;19.48;100.00
26489;BME280;14169;43.684;10.484;2022-09-12T05:55:39;101491.59;;;19.50;100.00
26489;BME280;14169;43.684;10.484;2022-09-12T05:58:05;101492.84;;;19.59;100.00
26489;BME280;14169;43.684;10.484;2022-09-12T06:00:31;101497.19;;;19.60;100.00
26489;BME280;14169;43.684;10.484;2022-09-12T06:02:56;101502.13;;;19.66;100.00
26489;BME280;14169;43.684;10.484;2022-09-12T06:05:21;101494.88;;;19.69;100.00
26489;BME280;14169;43.684;10.484;2022-09-12T06:07:47;101501.69;;;19.73;100.00
26489;BME280;14169;43.684;10.484;2022-09-12T06:10:12;101504.75;;;19.81;100.00
26489;BME280;14169;43.684;10.484;2022-09-12T06:12:37;101515.63;;;19.91;100.00
26489;BME280;14169;43.684;10.484;2022-09-12T06:15:03;101506.00;;;20.05;100.00
26489;BME280;14169;43.684;10.484;2022-09-12T06:17:29;101501.84;;;20.15;100.00
26489;BME280;14169;43.684;10.484;2022-09-12T06:19:54;101498.38;;;20.29;100.00
26489;BME280;14169;43.684;10.484;2022-09-12T06:22:19;101509.16;;;20.40;100.00
26489;BME280;14169;43.684;10.484;2022-09-12T06:24:45;101502.56;;;20.47;100.00
26489;BME280;14169;43.684;10.484;2022-09-12T06:27:10;101501.94;;;20.58;100.00
26489;BME280;14169;43.684;10.484;2022-09-12T06:29:35;101509.28;;;20.67;100.00
26489;BME280;14169;43.684;10.484;2022-09-12T06:32:01;101507.06;;;20.75;100.00
26489;BME280;14169;43.684;10.484;2022-09-12T06:34:28;101498.63;;;20.82;100.00
26489;BME280;14169;43.684;10.484;2022-09-12T06:36:54;101503.91;;;20.96;100.00
26489;BME280;14169;43.684;10.484;2022-09-12T06:39:20;101498.69;;;21.09;100.00
26489;BME280;14169;43.684;10.484;2022-09-12T06:41:46;101501.72;;;21.17;100.00
26489;BME280;14169;43.684;10.484;2022-09-12T06:44:13;101509.06;;;21.26;100.00
26489;BME280;14169;43.684;10.484;2022-09-12T06:46:40;101514.84;;;21.33;100.00
26489;BME280;14169;43.684;10.484;2022-09-12T06:49:05;101514.72;;;21.48;100.00
26489;BME280;14169;43.684;10.484;2022-09-12T06:51:32;101520.38;;;21.56;100.00
26489;BME280;14169;43.684;10.484;2022-09-12T06:53:57;101521.38;;;21.68;100.00
26489;BME280;14169;43.684;10.484;2022-09-12T06:56:24;101527.47;;;21.82;100.00
26489;BME280;14169;43.684;10.484;2022-09-12T06:58:50;101522.13;;;21.97;100.00
26489;BME280;14169;43.684;10.484;2022-09-12T07:01:18;101513.34;;;22.09;100.00
26489;BME280;14169;43.684;10.484;2022-09-12T07:03:47;101523.31;;;22.18;100.00
26489;BME280;14169;43.684;10.484;2022-09-12T07:06:13;101528.81;;;22.29;100.00
26489;BME280;14169;43.684;10.484;2022-09-12T07:08:39;101529.34;;;22.46;100.00
26489;BME280;14169;43.684;10.484;2022-09-12T07:13:57;101540.09;;;22.57;100.00
26489;BME280;14169;43.684;10.484;2022-09-12T07:16:22;101544.88;;;22.65;100.00
26489;BME280;14169;43.684;10.484;2022-09-12T07:18:52;101528.50;;;22.71;100.00
26489;BME280;14169;43.684;10.484;2022-09-12T07:23:43;101548.78;;;22.85;100.00
26489;BME280;14169;43.684;10.484;2022-09-12T07:26:10;101541.78;;;22.96;100.00
26489;BME280;14169;43.684;10.484;2022-09-12T07:28:35;101545.94;;;23.00;100.00
26489;BME280;14169;43.684;10.484;2022-09-12T07:31:08;101547.53;;;23.03;100.00
26489;BME280;14169;43.684;10.484;2022-09-12T07:33:33;101542.19;;;23.15;100.00
26489;BME280;14169;43.684;10.484;2022-09-12T07:36:03;101554.94;;;23.23;100.00
26489;BME280;14169;43.684;10.484;2022-09-12T07:38:28;101545.63;;;23.41;100.00
26489;BME280;14169;43.684;10.484;2022-09-12T07:40:54;101556.34;;;23.52;100.00
26489;BME280;14169;43.684;10.484;2022-09-12T07:43:19;101550.56;;;23.58;100.00
26489;BME280;14169;43.684;10.484;2022-09-12T07:45:44;101558.88;;;23.66;100.00
26489;BME280;14169;43.684;10.484;2022-09-12T07:48:10;101563.41;;;23.77;100.00
26489;BME280;14169;43.684;10.484;2022-09-12T07:50:35;101563.44;;;23.88;100.00
26489;BME280;14169;43.684;10.484;2022-09-12T07:53:01;101559.28;;;24.07;100.00
26489;BME280;14169;43.684;10.484;2022-09-12T07:55:27;101564.81;;;24.17;100.00
26489;BME280;14169;43.684;10.484;2022-09-12T07:57:53;101565.53;;;24.19;100.00
26489;BME280;14169;43.684;10.484;2022-09-12T08:00:19;101570.56;;;24.34;100.00
26489;BME280;14169;43.684;10.484;2022-09-12T08:02:44;101571.69;;;24.43;100.00
26489;BME280;14169;43.684;10.484;2022-09-12T08:05:09;101582.09;;;24.46;100.00
26489;BME280;14169;43.684;10.484;2022-09-12T08:07:35;101578.38;;;24.60;100.00
26489;BME280;14169;43.684;10.484;2022-09-12T08:10:00;101577.44;;;24.72;100.00
26489;BME280;14169;43.684;10.484;2022-09-12T08:12:26;101574.41;;;24.65;100.00
26489;BME280;14169;43.684;10.484;2022-09-12T08:14:51;101575.63;;;24.61;100.00
26489;BME280;14169;43.684;10.484;2022-09-12T08:17:19;101577.16;;;24.64;100.00
26489;BME280;14169;43.684;10.484;2022-09-12T08:19:44;101579.00;;;24.74;100.00
26489;BME280;14169;43.684;10.484;2022-09-12T08:22:10;101575.63;;;24.83;100.00
26489;BME280;14169;43.684;10.484;2022-09-12T08:24:35;101579.06;;;25.07;100.00
26489;BME280;14169;43.684;10.484;2022-09-12T08:27:01;101577.59;;;25.37;100.00
26489;BME280;14169;43.684;10.484;2022-09-12T08:29:26;101560.38;;;25.63;100.00
26489;BME280;14169;43.684;10.484;2022-09-12T08:31:51;101562.84;;;25.86;100.00
26489;BME280;14169;43.684;10.484;2022-09-12T08:34:17;101556.13;;;25.92;100.00
26489;BME280;14169;43.684;10.484;2022-09-12T08:36:43;101562.13;;;26.05;100.00
26489;BME280;14169;43.684;10.484;2022-09-12T08:39:10;101556.16;;;26.13;100.00
26489;BME280;14169;43.684;10.484;2022-09-12T08:46:56;101554.63;;;26.51;100.00
26489;BME280;14169;43.684;10.484;2022-09-12T08:51:52;101556.75;;;26.78;100.00
26489;BME280;14169;43.684;10.484;2022-09-12T08:54:20;101552.06;;;26.91;100.00
26489;BME280;14169;43.684;10.484;2022-09-12T08:56:48;101552.13;;;27.01;100.00
26489;BME280;14169;43.684;10.484;2022-09-12T08:59:14;101557.13;;;27.15;100.00
26489;BME280;14169;43.684;10.484;2022-09-12T09:01:40;101544.63;;;27.34;100.00
26489;BME280;14169;43.684;10.484;2022-09-12T09:09:21;101549.78;;;27.85;100.00
26489;BME280;14169;43.684;10.484;2022-09-12T09:14:23;101548.97;;;28.23;100.00
26489;BME280;14169;43.684;10.484;2022-09-12T09:17:14;101551.50;;;28.43;100.00
26489;BME280;14169;43.684;10.484;2022-09-12T09:19:45;101549.50;;;28.45;100.00
26489;BME280;14169;43.684;10.484;2022-09-12T09:22:15;101551.72;;;28.60;100.00
26489;BME280;14169;43.684;10.484;2022-09-12T09:24:53;101550.69;;;28.89;100.00
26489;BME280;14169;43.684;10.484;2022-09-12T09:29:49;101543.94;;;29.12;100.00
26489;BME280;14169;43.684;10.484;2022-09-12T09:32:17;101541.97;;;29.14;100.00
26489;BME280;14169;43.684;10.484;2022-09-12T09:34:46;101543.94;;;29.12;100.00
26489;BME280;14169;43.684;10.484;2022-09-12T09:37:19;101543.47;;;29.26;100.00
26489;BME280;14169;43.684;10.484;2022-09-12T09:39:54;101537.91;;;29.38;100.00
26489;BME280;14169;43.684;10.484;2022-09-12T09:44:51;101532.63;;;29.63;100.00
26489;BME280;14169;43.684;10.484;2022-09-12T09:47:17;101536.00;;;29.65;100.00
26489;BME280;14169;43.684;10.484;2022-09-12T09:49:43;101530.59;;;29.75;100.00
26489;BME280;14169;43.684;10.484;2022-09-12T09:52:09;101535.13;;;29.92;100.00
26489;BME280;14169;43.684;10.484;2022-09-12T09:54:38;101525.50;;;30.07;100.00
26489;BME280;14169;43.684;10.484;2022-09-12T09:57:27;101528.41;;;30.31;100.00
26489;BME280;14169;43.684;10.484;2022-09-12T09:59:49;101516.88;;;30.39;100.00
26489;BME280;14169;43.684;10.484;2022-09-12T10:02:21;101527.16;;;30.69;98.49
26489;BME280;14169;43.684;10.484;2022-09-12T10:04:54;101521.25;;;30.91;94.30
26489;BME280;14169;43.684;10.484;2022-09-12T10:07:19;101520.28;;;31.00;92.89
26489;BME280;14169;43.684;10.484;2022-09-12T10:10:05;101515.16;;;30.89;89.96
26489;BME280;14169;43.684;10.484;2022-09-12T10:12:31;101512.91;;;31.18;90.59
26489;BME280;14169;43.684;10.484;2022-09-12T10:14:59;101524.09;;;31.31;86.40
26489;BME280;14169;43.684;10.484;2022-09-12T10:17:31;101516.56;;;31.43;82.86
26489;BME280;14169;43.684;10.484;2022-09-12T10:20:03;101515.09;;;31.15;73.30
26489;BME280;14169;43.684;10.484;2022-09-12T10:22:29;101520.97;;;31.10;75.00
26489;BME280;14169;43.684;10.484;2022-09-12T10:24:58;101517.94;;;31.47;76.87
26489;BME280;14169;43.684;10.484;2022-09-12T10:29:51;101511.06;;;31.85;72.08
26489;BME280;14169;43.684;10.484;2022-09-12T10:32:33;101515.09;;;31.81;70.49
26489;BME280;14169;43.684;10.484;2022-09-12T10:35:03;101506.88;;;31.98;69.45
26489;BME280;14169;43.684;10.484;2022-09-12T10:37:36;101504.72;;;32.18;69.82
26489;BME280;14169;43.684;10.484;2022-09-12T10:40:04;101496.22;;;32.37;68.15
26489;BME280;14169;43.684;10.484;2022-09-12T10:45:29;101495.31;;;32.77;65.02
26489;BME280;14169;43.684;10.484;2022-09-12T10:47:55;101490.97;;;32.68;62.91
26489;BME280;14169;43.684;10.484;2022-09-12T10:52:55;101490.56;;;32.79;62.66
26489;BME280;14169;43.684;10.484;2022-09-12T10:55:36;101484.34;;;33.17;60.43
26489;BME280;14169;43.684;10.484;2022-09-12T11:00:33;101490.53;;;32.95;54.64
26489;BME280;14169;43.684;10.484;2022-09-12T11:03:04;101487.28;;;33.07;56.00
26489;BME280;14169;43.684;10.484;2022-09-12T11:26:53;101484.56;;;33.91;51.80
26489;BME280;14169;43.684;10.484;2022-09-12T11:31:38;101486.47;;;34.57;51.78
26489;BME280;14169;43.684;10.484;2022-09-12T11:34:07;101490.25;;;33.51;55.00
26489;BME280;14169;43.684;10.484;2022-09-12T11:41:37;101476.47;;;32.61;63.25
26489;BME280;14169;43.684;10.484;2022-09-12T11:46:39;101469.97;;;32.94;57.71
26489;BME280;14169;43.684;10.484;2022-09-12T11:51:37;101476.28;;;31.33;65.48
26489;BME280;14169;43.684;10.484;2022-09-12T11:56:49;101472.81;;;31.49;72.48
26489;BME280;14169;43.684;10.484;2022-09-12T11:59:28;101471.88;;;30.49;87.33
26489;BME280;14169;43.684;10.484;2022-09-12T12:01:54;101478.00;;;29.90;92.74
26489;BME280;14169;43.684;10.484;2022-09-12T12:04:23;101466.56;;;29.70;96.44
26489;BME280;14169;43.684;10.484;2022-09-12T12:06:54;101470.84;;;29.98;99.68
26489;BME280;14169;43.684;10.484;2022-09-12T12:09:20;101476.38;;;29.97;96.27
26489;BME280;14169;43.684;10.484;2022-09-12T12:11:55;101469.78;;;30.68;94.80
26489;BME280;14169;43.684;10.484;2022-09-12T12:14:30;101479.88;;;30.92;88.74
26489;BME280;14169;43.684;10.484;2022-09-12T12:16:57;101469.72;;;31.28;85.81
26489;BME280;14169;43.684;10.484;2022-09-12T12:21:51;101465.75;;;32.20;75.83
26489;BME280;14169;43.684;10.484;2022-09-12T12:24:18;101456.16;;;32.10;77.29
26489;BME280;14169;43.684;10.484;2022-09-12T12:27:00;101460.22;;;32.06;74.74
26489;BME280;14169;43.684;10.484;2022-09-12T12:36:53;101448.84;;;32.50;70.32
26489;BME280;14169;43.684;10.484;2022-09-12T12:41:56;101446.03;;;32.28;70.11
26489;BME280;14169;43.684;10.484;2022-09-12T12:44:45;101442.59;;;32.50;70.17
26489;BME280;14169;43.684;10.484;2022-09-12T12:47:22;101440.94;;;32.96;66.78
26489;BME280;14169;43.684;10.484;2022-09-12T12:49:58;101424.31;;;33.07;65.14
26489;BME280;14169;43.684;10.484;2022-09-12T12:52:24;101438.63;;;33.15;63.97
26489;BME280;14169;43.684;10.484;2022-09-12T12:54:51;101429.47;;;33.16;62.43
26489;BME280;14169;43.684;10.484;2022-09-12T12:57:25;101427.28;;;32.89;63.82
26489;BME280;14169;43.684;10.484;2022-09-12T12:59:58;101430.38;;;32.70;67.65
26489;BME280;14169;43.684;10.484;2022-09-12T13:02:29;101421.88;;;32.42;66.82
26489;BME280;14169;43.684;10.484;2022-09-12T13:04:56;101421.38;;;32.31;65.19
26489;BME280;14169;43.684;10.484;2022-09-12T13:07:28;101422.97;;;32.09;66.63
26489;BME280;14169;43.684;10.484;2022-09-12T13:09:55;101421.44;;;32.15;65.51
26489;BME280;14169;43.684;10.484;2022-09-12T13:12:25;101428.03;;;32.67;63.15
26489;BME280;14169;43.684;10.484;2022-09-12T13:14:56;101415.06;;;32.63;64.73
26489;BME280;14169;43.684;10.484;2022-09-12T13:17:39;101415.31;;;32.45;63.46
26489;BME280;14169;43.684;10.484;2022-09-12T13:22:44;101421.63;;;32.60;64.17
26489;BME280;14169;43.684;10.484;2022-09-12T13:25:19;101413.28;;;32.39;62.12
26489;BME280;14169;43.684;10.484;2022-09-12T13:30:44;101425.66;;;32.64;60.26
26489;BME280;14169;43.684;10.484;2022-09-12T13:33:27;101415.28;;;32.37;58.19
26489;BME280;14169;43.684;10.484;2022-09-12T13:36:08;101418.44;;;32.56;62.40
26489;BME280;14169;43.684;10.484;2022-09-12T13:44:09;101401.44;;;32.87;57.06
26489;BME280;14169;43.684;10.484;2022-09-12T13:46:35;101401.69;;;33.30;57.42
26489;BME280;14169;43.684;10.484;2022-09-12T13:49:04;101401.94;;;33.21;57.46
26489;BME280;14169;43.684;10.484;2022-09-12T13:51:31;101397.34;;;32.99;60.63
26489;BME280;14169;43.684;10.484;2022-09-12T13:53:58;101388.84;;;33.32;59.46
26489;BME280;14169;43.684;10.484;2022-09-12T13:56:24;101391.97;;;33.21;55.87
26489;BME280;14169;43.684;10.484;2022-09-12T13:58:59;101388.63;;;33.19;57.49
26489;BME280;14169;43.684;10.484;2022-09-12T14:01:44;101379.28;;;33.22;59.75
26489;BME280;14169;43.684;10.484;2022-09-12T14:04:23;101382.41;;;33.56;57.21
26489;BME280;14169;43.684;10.484;2022-09-12T14:09:40;101375.09;;;33.65;53.02
26489;BME280;14169;43.684;10.484;2022-09-12T14:12:48;101384.50;;;33.69;54.74
26489;BME280;14169;43.684;10.484;2022-09-12T14:14:55;101372.34;;;34.02;53.42
26489;BME280;14169;43.684;10.484;2022-09-12T14:19:55;101382.84;;;33.82;55.56
26489;BME280;14169;43.684;10.484;2022-09-12T14:22:26;101367.25;;;34.36;55.72
26489;BME280;14169;43.684;10.484;2022-09-12T14:24:53;101364.84;;;34.41;52.37
26489;BME280;14169;43.684;10.484;2022-09-12T14:27:24;101363.50;;;34.23;50.51
26489;BME280;14169;43.684;10.484;2022-09-12T14:30:06;101369.94;;;33.70;54.19
26489;BME280;14169;43.684;10.484;2022-09-12T14:32:33;101363.28;;;33.80;55.99
26489;BME280;14169;43.684;10.484;2022-09-12T14:35:03;101364.13;;;33.81;56.52
26489;BME280;14169;43.684;10.484;2022-09-12T14:37:28;101361.19;;;33.68;54.60
26489;BME280;14169;43.684;10.484;2022-09-12T14:39:53;101364.28;;;33.65;55.48
26489;BME280;14169;43.684;10.484;2022-09-12T14:42:20;101365.28;;;33.49;54.68
26489;BME280;14169;43.684;10.484;2022-09-12T14:45:11;101373.28;;;32.89;53.72
26489;BME280;14169;43.684;10.484;2022-09-12T14:47:41;101365.00;;;32.91;54.29
26489;BME280;14169;43.684;10.484;2022-09-12T14:50:17;101359.31;;;33.31;55.67
26489;BME280;14169;43.684;10.484;2022-09-12T14:52:42;101358.78;;;33.35;51.50
26489;BME280;14169;43.684;10.484;2022-09-12T14:57:40;101353.84;;;33.16;48.33
26489;BME280;14169;43.684;10.484;2022-09-12T15:02:38;101350.13;;;33.40;49.84
26489;BME280;14169;43.684;10.484;2022-09-12T15:09:54;101342.91;;;33.10;50.80
26489;BME280;14169;43.684;10.484;2022-09-12T15:12:19;101338.88;;;33.28;52.75
26489;BME280;14169;43.684;10.484;2022-09-12T15:14:44;101335.41;;;33.20;52.38
26489;BME280;14169;43.684;10.484;2022-09-12T15:17:10;101345.94;;;33.38;52.70
26489;BME280;14169;43.684;10.484;2022-09-12T15:19:35;101337.97;;;33.36;54.34